createdAt,value
2019-02-17T00:00:35.382Z,19.57
2019-02-17T00:03:36.667Z,24.70
2019-02-17T00:06:38.238Z,20.17
2019-02-17T00:09:39.199Z,25.70
2019-02-17T00:12:40.743Z,22.40
2019-02-17T00:15:42.398Z,21.10
2019-02-17T00:18:44.182Z,24.70
2019-02-17T00:21:45.195Z,24.07
2019-02-17T00:24:46.267Z,24.03
2019-02-17T00:27:47.655Z,19.83
2019-02-17T00:30:49.575Z,22.27
2019-02-17T00:33:49.599Z,21.53
2019-02-17T00:36:58.367Z,19.37
2019-02-17T00:39:59.802Z,20.37
2019-02-17T00:43:01.062Z,19.23
2019-02-17T00:46:02.446Z,18.80
2019-02-17T00:49:03.575Z,18.60
2019-02-17T00:52:05.568Z,17.87
2019-02-17T00:55:07.014Z,23.27
2019-02-17T00:58:08.819Z,16.57
2019-02-17T01:01:10.234Z,18.70
2019-02-17T01:04:12.030Z,23.07
2019-02-17T01:07:13.234Z,17.87
2019-02-17T01:10:14.863Z,17.90
2019-02-17T01:13:16.031Z,24.13
2019-02-17T01:16:17.706Z,21.23
2019-02-17T01:19:19.343Z,21.13
2019-02-17T01:22:09.043Z,16.17
2019-02-17T01:25:17.756Z,17.30
2019-02-17T01:28:19.418Z,17.20
2019-02-17T01:31:21.131Z,20.63
2019-02-17T01:34:22.943Z,21.80
2019-02-17T01:37:24.832Z,17.80
2019-02-17T01:40:26.498Z,19.87
2019-02-17T01:43:27.691Z,21.23
2019-02-17T01:46:28.683Z,26.07
2019-02-17T01:49:30.156Z,21.47
2019-02-17T01:52:32.183Z,24.03
2019-02-17T01:55:33.118Z,20.83
2019-02-17T01:58:34.542Z,19.47
2019-02-17T02:01:35.994Z,25.03
2019-02-17T02:04:37.732Z,19.83
2019-02-17T02:07:38.836Z,19.77
2019-02-17T02:10:39.940Z,22.50
2019-02-17T02:13:41.435Z,19.73
2019-02-17T02:16:43.235Z,19.10
2019-02-17T02:19:44.279Z,16.47
2019-02-17T02:22:45.219Z,18.93
2019-02-17T02:25:46.054Z,17.67
2019-02-17T02:28:47.464Z,23.73
2019-02-17T02:31:49.293Z,20.00
2019-02-17T02:34:50.819Z,17.07
2019-02-17T02:37:51.761Z,20.47
2019-02-17T02:40:53.473Z,21.00
2019-02-17T02:43:54.427Z,24.37
2019-02-17T02:46:55.566Z,17.47
2019-02-17T02:49:56.638Z,25.87
2019-02-17T02:52:57.854Z,20.60
2019-02-17T02:55:59.025Z,20.60
2019-02-17T02:59:00.410Z,23.70
2019-02-17T03:02:02.054Z,18.93
2019-02-17T03:05:03.724Z,20.27
2019-02-17T03:08:03.599Z,24.97
2019-02-17T03:11:05.575Z,20.20
2019-02-17T03:14:07.622Z,17.45
2019-02-17T03:17:08.759Z,21.17
2019-02-17T03:20:09.843Z,21.30
2019-02-17T03:23:11.527Z,24.45
2019-02-17T03:26:12.505Z,17.92
2019-02-17T03:29:14.156Z,20.00
2019-02-17T03:32:15.382Z,20.20
2019-02-17T03:35:16.560Z,18.40
2019-02-17T03:38:17.547Z,23.87
2019-02-17T03:41:18.809Z,17.73
2019-02-17T03:44:20.790Z,15.53
2019-02-17T03:47:22.488Z,20.67
2019-02-17T03:50:23.850Z,17.70
2019-02-17T03:53:25.493Z,15.87
2019-02-17T03:56:26.588Z,20.00
2019-02-17T03:59:28.245Z,24.23
2019-02-17T04:02:29.327Z,19.27
2019-02-17T04:05:30.178Z,18.23
2019-02-17T04:08:30.167Z,20.80
2019-02-17T04:11:31.495Z,20.25
2019-02-17T04:14:33.231Z,15.43
2019-02-17T04:17:34.370Z,24.27
2019-02-17T04:20:34.722Z,22.65
2019-02-17T04:23:35.786Z,23.40
2019-02-17T04:26:37.109Z,22.07
2019-02-17T04:29:44.062Z,20.00
2019-02-17T04:32:45.023Z,20.30
2019-02-17T04:35:46.410Z,18.95
2019-02-17T04:38:47.794Z,19.98
2019-02-17T04:41:49.503Z,32.35
2019-02-17T04:44:50.431Z,27.85
2019-02-17T04:47:52.011Z,23.20
2019-02-17T04:50:51.835Z,21.52
2019-02-17T04:54:00.636Z,21.60
2019-02-17T04:57:01.591Z,24.50
2019-02-17T05:00:03.015Z,20.17
2019-02-17T05:03:03.996Z,21.77
2019-02-17T05:06:05.743Z,21.48
2019-02-17T05:12:28.986Z,19.15
2019-02-17T05:15:36.149Z,18.00
2019-02-17T05:18:38.025Z,26.80
2019-02-17T05:21:39.038Z,22.00
2019-02-17T05:24:40.171Z,21.42
2019-02-17T05:27:41.230Z,16.80
2019-02-17T05:30:52.298Z,20.55
2019-02-17T05:33:46.262Z,22.17
2019-02-17T05:36:47.371Z,22.50
2019-02-17T05:39:49.064Z,17.82
2019-02-17T05:42:50.643Z,17.32
2019-02-17T05:48:58.822Z,16.70
2019-02-17T05:52:00.202Z,17.85
2019-02-17T05:55:06.892Z,17.15
2019-02-17T05:58:08.059Z,15.65
2019-02-17T06:01:10.482Z,17.95
2019-02-17T06:04:11.874Z,15.83
2019-02-17T06:07:13.093Z,24.95
2019-02-17T06:10:14.523Z,17.12
2019-02-17T06:13:15.834Z,19.75
2019-02-17T06:19:24.679Z,24.60
2019-02-17T06:22:25.871Z,16.32
2019-02-17T06:25:27.020Z,21.25
2019-02-17T06:28:27.059Z,14.50
2019-02-17T06:34:56.182Z,18.95
2019-02-17T06:37:57.521Z,23.83
2019-02-17T06:40:59.135Z,17.52
2019-02-17T06:44:00.477Z,14.47
2019-02-17T06:50:12.098Z,17.25
2019-02-17T06:53:13.879Z,18.12
2019-02-17T06:59:48.577Z,16.00
2019-02-17T07:02:50.344Z,21.15
2019-02-17T07:06:11.216Z,17.77
2019-02-17T07:09:12.419Z,15.58
2019-02-17T07:12:13.455Z,23.22
2019-02-17T07:15:14.928Z,16.42
2019-02-17T07:18:22.140Z,12.30
2019-02-17T07:21:23.618Z,14.95
2019-02-17T07:24:25.047Z,16.97
2019-02-17T07:27:26.227Z,16.65
2019-02-17T07:30:27.170Z,15.18
2019-02-17T07:33:29.070Z,15.18
2019-02-17T07:36:29.159Z,15.43
2019-02-17T07:39:38.008Z,15.30
2019-02-17T07:42:39.023Z,15.45
2019-02-17T07:45:39.859Z,19.87
2019-02-17T07:48:47.454Z,20.72
2019-02-17T07:51:49.542Z,17.48
2019-02-17T07:54:51.186Z,18.70
2019-02-17T07:57:53.102Z,20.53
2019-02-17T08:00:54.282Z,22.00
2019-02-17T08:03:55.363Z,23.47
2019-02-17T08:06:57.260Z,19.10
2019-02-17T08:10:00.606Z,19.17
2019-02-17T08:13:00.843Z,20.97
2019-02-17T08:16:02.111Z,22.77
2019-02-17T08:19:09.363Z,17.40
2019-02-17T08:22:11.200Z,18.13
2019-02-17T08:25:21.466Z,19.97
2019-02-17T08:28:15.295Z,22.40
2019-02-17T08:31:16.411Z,20.37
2019-02-17T08:34:18.102Z,23.70
2019-02-17T08:37:19.579Z,23.27
2019-02-17T08:40:21.277Z,19.87
2019-02-17T08:43:22.265Z,20.70
2019-02-17T08:46:23.446Z,18.27
2019-02-17T08:52:32.363Z,23.90
2019-02-17T08:55:33.422Z,19.63
2019-02-17T08:58:34.543Z,22.37
2019-02-17T09:01:36.223Z,21.33
2019-02-17T09:04:38.089Z,21.80
2019-02-17T09:07:39.530Z,18.40
2019-02-17T09:10:41.239Z,23.30
2019-02-17T09:13:41.311Z,19.37
2019-02-17T09:16:50.185Z,22.23
2019-02-17T09:19:57.341Z,19.97
2019-02-17T09:22:58.962Z,19.70
2019-02-17T09:25:58.822Z,20.53
2019-02-17T09:29:00.006Z,22.73
2019-02-17T09:32:01.124Z,19.40
2019-02-17T09:35:02.574Z,19.23
2019-02-17T09:38:05.068Z,21.37
2019-02-17T09:41:05.903Z,20.40
2019-02-17T09:44:07.151Z,19.57
2019-02-17T09:47:08.820Z,20.53
2019-02-17T09:50:16.202Z,16.73
2019-02-17T09:53:18.173Z,19.40
2019-02-17T09:56:19.119Z,21.67
2019-02-17T09:59:20.949Z,19.13
2019-02-17T10:02:26.444Z,19.70
2019-02-17T10:05:25.443Z,17.73
2019-02-17T10:08:27.359Z,17.27
2019-02-17T10:11:29.126Z,18.57
2019-02-17T10:14:30.688Z,18.00
2019-02-17T10:17:31.907Z,15.63
2019-02-17T10:23:40.540Z,18.00
2019-02-17T10:26:41.679Z,17.00
2019-02-17T10:29:42.859Z,17.97
2019-02-17T10:32:44.762Z,18.30
2019-02-17T10:35:45.506Z,16.97
2019-02-17T10:38:46.993Z,17.40
2019-02-17T10:41:48.140Z,17.07
2019-02-17T10:44:48.219Z,19.87
2019-02-17T10:47:56.874Z,19.77
2019-02-17T10:51:03.860Z,19.50
2019-02-17T10:54:06.345Z,15.77
2019-02-17T10:57:07.630Z,16.97
2019-02-17T11:00:11.953Z,17.77
2019-02-17T11:03:13.069Z,15.20
2019-02-17T11:06:14.014Z,15.23
2019-02-17T11:09:20.271Z,20.30
2019-02-17T11:12:23.609Z,18.90
2019-02-17T11:15:25.469Z,17.07
2019-02-17T11:18:27.580Z,14.27
2019-02-17T11:24:36.539Z,17.33
2019-02-17T11:27:37.665Z,15.87
2019-02-17T11:30:39.394Z,17.53
2019-02-17T11:33:40.915Z,14.23
2019-02-17T11:36:42.244Z,14.80
2019-02-17T11:39:44.179Z,14.13
2019-02-17T11:42:46.131Z,15.73
2019-02-17T11:45:47.551Z,14.30
2019-02-17T11:48:48.730Z,13.30
2019-02-17T11:51:55.899Z,13.27
2019-02-17T11:54:58.229Z,12.47
2019-02-17T11:58:00.047Z,13.10
2019-02-17T12:01:02.035Z,13.33
2019-02-17T12:04:03.955Z,15.43
2019-02-17T12:07:05.497Z,14.97
2019-02-17T12:10:07.282Z,13.60
2019-02-17T12:13:08.800Z,13.83
2019-02-17T12:16:10.270Z,14.33
2019-02-17T12:19:12.282Z,11.83
2019-02-17T12:25:44.377Z,14.00
2019-02-17T12:28:50.278Z,14.23
2019-02-17T12:31:51.566Z,14.10
2019-02-17T12:34:53.344Z,12.43
2019-02-17T12:37:54.600Z,11.80
2019-02-17T12:40:54.730Z,13.50
2019-02-17T12:44:03.706Z,13.07
2019-02-17T12:47:05.545Z,11.63
2019-02-17T12:50:06.680Z,13.30
2019-02-17T12:53:13.755Z,14.70
2019-02-17T12:56:15.365Z,12.73
2019-02-17T12:59:16.995Z,12.40
2019-02-17T13:02:18.746Z,11.27
2019-02-17T13:05:20.195Z,12.27
2019-02-17T13:08:21.817Z,11.03
2019-02-17T13:11:23.460Z,10.90
2019-02-17T13:14:25.323Z,12.57
2019-02-17T13:17:26.337Z,12.70
2019-02-17T13:20:28.152Z,11.10
2019-02-17T13:26:36.714Z,12.37
2019-02-17T13:29:40.201Z,11.40
2019-02-17T13:32:42.143Z,10.80
2019-02-17T13:35:43.945Z,12.40
2019-02-17T13:38:45.619Z,14.60
2019-02-17T13:41:46.679Z,10.50
2019-02-17T13:44:48.006Z,11.07
2019-02-17T13:47:48.303Z,14.70
2019-02-17T13:50:49.270Z,13.30
2019-02-17T13:53:57.102Z,11.33
2019-02-17T13:56:58.958Z,10.60
2019-02-17T14:00:00.554Z,11.73
2019-02-17T14:03:04.475Z,11.07
2019-02-17T14:06:05.633Z,13.60
2019-02-17T14:09:07.274Z,10.80
2019-02-17T14:12:08.867Z,12.17
2019-02-17T14:15:10.122Z,12.00
2019-02-17T14:18:11.534Z,10.40
2019-02-17T14:21:13.499Z,11.23
2019-02-17T14:24:21.018Z,13.40
2019-02-17T14:27:23.076Z,9.83
2019-02-17T14:30:24.820Z,11.30
2019-02-17T14:33:26.455Z,11.07
2019-02-17T14:36:28.138Z,12.87
2019-02-17T14:39:30.140Z,10.00
2019-02-17T14:42:31.447Z,10.23
2019-02-17T14:45:31.541Z,8.67
2019-02-17T14:52:05.894Z,9.83
2019-02-17T14:58:35.558Z,9.43
2019-02-17T15:01:37.035Z,12.80
2019-02-17T15:04:38.119Z,11.00
2019-02-17T15:07:40.004Z,8.57
2019-02-17T15:10:41.878Z,13.20
2019-02-17T15:13:43.149Z,12.60
2019-02-17T15:16:44.435Z,12.27
2019-02-17T15:19:45.719Z,10.53
2019-02-17T15:22:46.788Z,15.03
2019-02-17T15:29:14.426Z,10.63
2019-02-17T15:32:16.278Z,10.30
2019-02-17T15:35:17.822Z,12.60
2019-02-17T15:38:19.660Z,8.10
2019-02-17T15:41:21.042Z,15.47
2019-02-17T15:44:21.632Z,9.90
2019-02-17T15:53:22.747Z,13.10
2019-02-17T15:59:57.043Z,13.27
2019-02-17T16:02:58.459Z,11.53
2019-02-17T16:05:59.467Z,14.87
2019-02-17T16:09:00.861Z,29.03
2019-02-17T16:15:09.156Z,13.17
2019-02-17T16:18:10.579Z,40.57
2019-02-17T16:21:13.122Z,15.43
2019-02-17T16:24:14.530Z,13.10
2019-02-17T16:30:23.579Z,13.93
2019-02-17T16:33:24.693Z,17.07
2019-02-17T16:36:25.835Z,13.10
2019-02-17T16:39:27.178Z,14.07
2019-02-17T16:42:29.083Z,14.03
2019-02-17T16:45:30.623Z,13.40
2019-02-17T16:48:36.542Z,18.90
2019-02-17T16:51:44.246Z,12.17
2019-02-17T16:54:46.159Z,10.10
2019-02-17T17:00:55.234Z,13.37
2019-02-17T17:03:56.283Z,12.53
2019-02-17T17:06:57.534Z,16.77
2019-02-17T17:09:59.455Z,16.63
2019-02-17T17:13:01.129Z,13.00
2019-02-17T17:16:02.888Z,16.43
2019-02-17T17:19:04.350Z,20.57
2019-02-17T17:22:06.359Z,11.73
2019-02-17T17:25:07.788Z,16.97
2019-02-17T17:31:17.662Z,14.27
2019-02-17T17:34:19.299Z,15.67
2019-02-17T17:37:20.547Z,20.00
2019-02-17T17:40:21.498Z,13.80
2019-02-17T17:43:22.656Z,14.43
2019-02-17T17:46:23.826Z,15.83
2019-02-17T17:49:25.913Z,11.00
2019-02-17T17:52:27.870Z,14.17
2019-02-17T17:55:34.020Z,26.30
2019-02-17T18:01:42.382Z,18.23
2019-02-17T18:04:43.686Z,15.53
2019-02-17T18:07:44.599Z,12.27
2019-02-17T18:10:46.438Z,10.90
2019-02-17T18:13:47.538Z,12.53
2019-02-17T18:16:49.388Z,14.97
2019-02-17T18:19:51.251Z,11.60
2019-02-17T18:22:52.507Z,15.60
2019-02-17T18:25:53.565Z,17.73
2019-02-17T18:32:02.416Z,9.40
2019-02-17T18:35:04.146Z,9.60
2019-02-17T18:38:05.508Z,12.93
2019-02-17T18:41:06.702Z,11.00
2019-02-17T18:44:07.868Z,8.77
2019-02-17T18:47:09.250Z,10.77
2019-02-17T18:50:11.714Z,10.33
2019-02-17T18:53:15.305Z,15.90
2019-02-17T18:56:17.184Z,11.83
2019-02-17T19:02:25.679Z,9.83
2019-02-17T19:05:31.992Z,16.87
2019-02-17T19:08:29.782Z,12.60
2019-02-17T19:11:30.792Z,10.47
2019-02-17T19:14:32.523Z,10.10
2019-02-17T19:17:33.987Z,9.90
2019-02-17T19:20:35.360Z,10.57
2019-02-17T19:23:37.356Z,11.93
2019-02-17T19:26:38.745Z,17.50
2019-02-17T19:32:46.783Z,7.40
2019-02-17T19:35:48.608Z,9.73
2019-02-17T19:38:50.163Z,8.87
2019-02-17T19:41:50.545Z,8.37
2019-02-17T19:44:51.618Z,9.87
2019-02-17T19:47:53.420Z,9.43
2019-02-17T19:50:55.313Z,9.97
2019-02-17T19:53:56.871Z,10.83
2019-02-17T19:56:59.039Z,13.60
2019-02-17T20:06:34.316Z,8.90
2019-02-17T20:12:45.330Z,8.93
2019-02-17T20:15:46.822Z,12.23
2019-02-17T20:18:48.708Z,14.67
2019-02-17T20:21:49.858Z,9.90
2019-02-17T20:24:58.807Z,11.83
2019-02-17T20:28:00.881Z,11.30
2019-02-17T20:34:09.863Z,10.50
2019-02-17T20:37:11.010Z,8.60
2019-02-17T20:40:12.628Z,12.30
2019-02-17T20:43:14.109Z,31.57
2019-02-17T20:46:14.086Z,12.03
2019-02-17T20:52:48.303Z,9.33
2019-02-17T20:55:49.510Z,12.40
2019-02-17T20:58:51.114Z,9.60
2019-02-17T21:04:59.063Z,10.60
2019-02-17T21:07:59.571Z,9.87
2019-02-17T21:11:01.411Z,11.20
2019-02-17T21:14:03.334Z,9.07
2019-02-17T21:17:05.040Z,10.67
2019-02-17T21:20:06.415Z,12.30
2019-02-17T21:23:08.418Z,7.97
2019-02-17T21:26:09.511Z,9.10
2019-02-17T21:29:10.702Z,10.80
2019-02-17T21:35:19.493Z,9.80
2019-02-17T21:38:21.451Z,8.10
2019-02-17T21:41:22.282Z,9.63
2019-02-17T21:44:23.743Z,8.13
2019-02-17T21:47:25.569Z,14.17
2019-02-17T21:50:26.610Z,10.07
2019-02-17T21:53:27.868Z,10.23
2019-02-17T21:56:29.047Z,9.53
2019-02-17T21:59:32.499Z,7.60
2019-02-17T22:05:40.826Z,7.70
2019-02-17T22:08:41.891Z,12.33
2019-02-17T22:11:43.742Z,9.87
2019-02-17T22:14:45.254Z,9.23
2019-02-17T22:17:46.147Z,8.90
2019-02-17T22:20:48.025Z,6.10
2019-02-17T22:23:49.380Z,10.47
2019-02-17T22:26:50.504Z,5.27
2019-02-17T22:29:51.931Z,5.57
2019-02-17T22:35:59.840Z,7.33
2019-02-17T22:39:01.782Z,6.57
2019-02-17T22:42:03.187Z,7.10
2019-02-17T22:45:04.391Z,12.97
2019-02-17T22:48:05.699Z,21.33
2019-02-17T22:51:07.640Z,12.87
2019-02-17T22:54:09.314Z,6.43
2019-02-17T22:57:10.317Z,8.00
2019-02-17T23:00:11.463Z,6.83
2019-02-17T23:06:20.295Z,7.80
2019-02-17T23:09:22.294Z,8.40
2019-02-17T23:12:23.323Z,6.20
2019-02-17T23:15:24.900Z,5.30
2019-02-17T23:18:24.787Z,5.80
2019-02-17T23:21:26.679Z,9.33
2019-02-17T23:24:27.650Z,4.90
2019-02-17T23:27:28.764Z,5.37
2019-02-17T23:30:30.392Z,6.90
2019-02-17T23:36:38.651Z,5.63
2019-02-17T23:39:39.979Z,7.63
2019-02-17T23:42:41.600Z,5.53
2019-02-17T23:45:44.676Z,4.67
2019-02-17T23:48:46.126Z,4.67
2019-02-17T23:51:47.894Z,5.13
2019-02-17T23:54:48.859Z,6.57
2019-02-17T23:57:50.118Z,6.87
